Time;durP1;ratioP1;P1;durP2;ratioP2;P2;SDS_P1;SDS_P2;PMS_P1;PMS_P2;Temp;Humidity;BMP_temperature;BMP_pressure;BME280_temperature;BME280_humidity;BME280_pressure;Samples;Min_cycle;Max_cycle;Signal;HPM_P1;HPM_P2
2024/02/20 00:00:44;;;;;;;2.15;0.90;;;6.30;99.90;;;;;;5044034;28;20041;-70
2024/02/20 00:03:09;;;;;;;3.92;1.67;;;6.30;99.90;;;;;;5043731;28;20037;-70
2024/02/20 00:05:35;;;;;;;1.48;1.08;;;6.30;99.90;;;;;;5044065;28;20659;-69
2024/02/20 00:08:03;;;;;;;1.70;0.95;;;6.30;99.90;;;;;;5043881;28;20071;-69
2024/02/20 00:10:32;;;;;;;1.58;0.85;;;6.30;99.90;;;;;;5045035;28;20041;-70
2024/02/20 00:12:57;;;;;;;4.53;0.93;;;6.30;99.90;;;;;;5043510;28;20029;-69
2024/02/20 00:15:23;;;;;;;1.25;0.80;;;6.30;99.90;;;;;;5039066;28;20143;-70
2024/02/20 00:17:49;;;;;;;1.17;0.80;;;6.20;99.90;;;;;;5034910;28;20029;-70
2024/02/20 00:20:15;;;;;;;1.50;0.68;;;6.20;99.90;;;;;;5044752;28;20428;-70
2024/02/20 00:22:40;;;;;;;0.70;0.70;;;6.30;99.90;;;;;;5042726;28;20036;-70
2024/02/20 00:25:07;;;;;;;1.45;0.95;;;6.30;99.90;;;;;;5044523;28;20025;-70
2024/02/20 00:27:33;;;;;;;3.20;0.90;;;6.20;99.90;;;;;;5042403;28;20534;-70
2024/02/20 00:29:58;;;;;;;4.43;1.05;;;6.30;99.90;;;;;;5039118;28;20148;-70
2024/02/20 00:32:24;;;;;;;1.75;0.88;;;6.30;99.90;;;;;;5045917;28;20037;-69
2024/02/20 00:34:50;;;;;;;1.98;1.00;;;6.20;99.90;;;;;;5041498;28;20412;-70
2024/02/20 00:37:16;;;;;;;3.55;1.25;;;6.30;99.90;;;;;;5044559;28;20047;-69
2024/02/20 00:39:42;;;;;;;1.58;0.80;;;6.30;99.90;;;;;;5042825;28;20033;-70
2024/02/20 00:42:08;;;;;;;1.55;0.80;;;6.30;99.90;;;;;;5043905;28;20487;-70
2024/02/20 00:44:34;;;;;;;2.00;1.13;;;6.30;99.90;;;;;;5045070;28;20114;-70
2024/02/20 00:46:59;;;;;;;1.58;0.90;;;6.30;99.90;;;;;;5040187;28;20032;-69
2024/02/20 00:49:25;;;;;;;1.10;0.80;;;6.30;99.90;;;;;;5039279;28;20048;-70
2024/02/20 00:51:50;;;;;;;2.15;1.05;;;6.30;99.90;;;;;;5050511;28;20044;-70
2024/02/20 00:54:17;;;;;;;2.17;0.80;;;6.30;99.90;;;;;;5051929;28;20112;-70
2024/02/20 00:56:44;;;;;;;3.58;1.83;;;6.30;99.90;;;;;;5043147;28;20494;-70
2024/02/20 00:59:10;;;;;;;1.55;1.10;;;6.30;99.90;;;;;;5050128;28;20370;-69
2024/02/20 01:01:36;;;;;;;0.95;0.85;;;6.30;99.90;;;;;;5047893;28;20044;-71
2024/02/20 01:04:02;;;;;;;2.08;1.00;;;6.30;99.90;;;;;;5052242;28;20508;-70
2024/02/20 01:06:27;;;;;;;2.95;0.98;;;6.30;99.90;;;;;;5058073;28;20099;-70
2024/02/20 01:08:53;;;;;;;2.22;1.10;;;6.30;99.90;;;;;;5048173;28;20121;-70
2024/02/20 01:11:18;;;;;;;2.20;1.10;;;6.30;99.90;;;;;;5047577;28;20064;-71
2024/02/20 01:13:43;;;;;;;2.35;0.93;;;6.30;99.90;;;;;;5054030;28;20052;-70
2024/02/20 01:16:09;;;;;;;1.58;0.80;;;6.30;99.90;;;;;;5030446;28;20049;-70
2024/02/20 01:18:37;;;;;;;1.27;0.88;;;6.30;99.90;;;;;;5043863;28;20307;-69
2024/02/20 01:21:03;;;;;;;1.30;0.82;;;6.30;99.90;;;;;;5055308;28;20060;-71
2024/02/20 01:23:28;;;;;;;1.45;0.95;;;6.30;99.90;;;;;;5050038;28;20170;-70
2024/02/20 01:25:55;;;;;;;1.58;0.68;;;6.30;99.90;;;;;;5048808;28;20154;-70
2024/02/20 01:28:20;;;;;;;0.85;0.50;;;6.30;99.90;;;;;;5049103;28;20044;-70
2024/02/20 01:30:47;;;;;;;1.08;0.55;;;6.30;99.90;;;;;;5047451;28;20254;-69
2024/02/20 01:33:13;;;;;;;1.83;1.02;;;6.30;99.90;;;;;;5045369;28;20579;-69
2024/02/20 01:35:38;;;;;;;1.05;0.70;;;6.30;99.90;;;;;;5048626;28;20195;-70
2024/02/20 01:38:04;;;;;;;4.68;1.20;;;6.30;99.90;;;;;;5051978;28;20103;-70
2024/02/20 01:40:30;;;;;;;1.27;0.80;;;6.30;99.90;;;;;;5049631;28;20044;-70
2024/02/20 01:43:04;;;;;;;2.15;1.02;;;6.30;99.90;;;;;;5052185;28;20056;-70
2024/02/20 01:45:34;;;;;;;1.83;0.90;;;6.30;99.90;;;;;;5053157;28;20101;-70
2024/02/20 01:48:03;;;;;;;2.50;1.38;;;6.30;99.90;;;;;;5046195;28;20040;-70
2024/02/20 01:50:33;;;;;;;2.50;1.45;;;6.20;99.90;;;;;;5046948;28;20033;-70
2024/02/20 01:52:58;;;;;;;0.52;0.52;;;6.30;99.90;;;;;;5052895;28;20025;-70
2024/02/20 01:55:25;;;;;;;1.98;1.02;;;6.30;99.90;;;;;;5032325;28;20126;-70
2024/02/20 01:57:50;;;;;;;1.00;0.63;;;6.30;99.90;;;;;;5059898;28;20331;-70
2024/02/20 02:00:17;;;;;;;1.30;0.70;;;6.20;99.90;;;;;;5055798;28;20150;-70
2024/02/20 02:02:43;;;;;;;1.35;0.60;;;6.20;99.90;;;;;;5045945;28;20030;-70
2024/02/20 02:05:08;;;;;;;2.38;0.75;;;6.20;99.90;;;;;;5049627;28;20032;-70
2024/02/20 02:07:34;;;;;;;3.40;0.82;;;6.20;99.90;;;;;;5047680;28;20204;-70
2024/02/20 02:09:59;;;;;;;3.92;1.10;;;6.20;99.90;;;;;;5046717;28;20052;-69
2024/02/20 02:12:25;;;;;;;1.95;0.68;;;6.20;99.90;;;;;;5030866;28;20033;-70
2024/02/20 02:14:50;;;;;;;1.55;0.82;;;6.20;99.90;;;;;;5049920;28;20033;-70
2024/02/20 02:17:16;;;;;;;0.63;0.47;;;6.10;99.90;;;;;;5045415;28;20112;-70
2024/02/20 02:19:42;;;;;;;0.50;0.40;;;6.10;99.90;;;;;;5049426;28;20079;-70
2024/02/20 02:22:07;;;;;;;1.25;0.50;;;6.10;99.90;;;;;;5048132;28;20131;-70
2024/02/20 02:24:34;;;;;;;1.65;1.08;;;6.10;99.90;;;;;;5051063;28;20029;-72
2024/02/20 02:27:00;;;;;;;0.98;0.70;;;6.10;99.90;;;;;;5048325;28;20378;-70
2024/02/20 02:29:26;;;;;;;1.85;0.60;;;6.20;99.90;;;;;;5045409;28;20085;-69
2024/02/20 02:31:51;;;;;;;3.28;1.23;;;6.10;99.90;;;;;;5043973;28;20048;-71
2024/02/20 02:34:17;;;;;;;4.80;1.67;;;6.10;99.90;;;;;;5028947;28;20025;-71
2024/02/20 02:36:43;;;;;;;1.60;0.88;;;6.10;99.90;;;;;;5045306;28;20419;-70
2024/02/20 02:39:09;;;;;;;4.30;0.73;;;6.10;99.90;;;;;;5045701;28;20382;-70
2024/02/20 02:41:35;;;;;;;3.72;1.25;;;6.00;99.90;;;;;;5052066;28;20434;-69
2024/02/20 02:44:00;;;;;;;2.38;0.95;;;6.10;99.90;;;;;;5044541;28;20029;-70
2024/02/20 02:46:26;;;;;;;3.25;0.80;;;6.00;99.90;;;;;;5048469;28;20036;-70
2024/02/20 02:48:51;;;;;;;5.88;0.82;;;6.00;99.90;;;;;;5048939;28;20035;-70
2024/02/20 02:51:17;;;;;;;4.70;1.50;;;6.00;99.90;;;;;;5053671;28;20062;-69
2024/02/20 02:53:42;;;;;;;5.28;0.93;;;6.00;99.90;;;;;;5048458;28;20021;-69
2024/02/20 02:56:14;;;;;;;1.77;0.90;;;6.00;99.90;;;;;;5052695;28;20029;-69
2024/02/20 02:58:40;;;;;;;4.57;1.75;;;5.90;99.90;;;;;;5048058;28;20025;-69
2024/02/20 03:01:06;;;;;;;10.60;1.67;;;6.00;99.90;;;;;;5046821;28;20029;-68
2024/02/20 03:03:32;;;;;;;2.45;0.90;;;5.90;99.90;;;;;;5059299;28;20040;-69
2024/02/20 03:05:58;;;;;;;3.00;1.23;;;5.90;99.90;;;;;;5061521;28;20032;-69
2024/02/20 03:08:23;;;;;;;5.25;1.27;;;5.90;99.90;;;;;;5060454;28;20370;-69
2024/02/20 03:10:49;;;;;;;3.97;1.17;;;5.80;99.80;;;;;;5052244;28;20064;-69
2024/02/20 03:13:14;;;;;;;7.65;1.23;;;5.80;99.60;;;;;;5052683;28;20032;-70
2024/02/20 03:15:40;;;;;;;7.32;1.45;;;5.80;99.70;;;;;;5046438;28;20059;-69
2024/02/20 03:18:06;;;;;;;3.15;0.77;;;5.80;99.50;;;;;;5053314;28;20382;-68
2024/02/20 03:20:32;;;;;;;7.10;1.40;;;5.80;99.60;;;;;;5051956;28;20025;-68
2024/02/20 03:22:57;;;;;;;4.70;1.60;;;5.80;99.50;;;;;;5052583;28;20044;-69
2024/02/20 03:25:23;;;;;;;3.90;1.17;;;5.80;99.50;;;;;;5049052;28;20404;-69
2024/02/20 03:27:49;;;;;;;3.97;1.58;;;5.70;99.40;;;;;;5049992;28;20115;-69
2024/02/20 03:30:15;;;;;;;5.72;1.30;;;5.80;99.50;;;;;;5050665;28;20040;-69
2024/02/20 03:32:41;;;;;;;1.88;0.50;;;5.70;99.40;;;;;;5030491;28;20032;-69
2024/02/20 03:35:10;;;;;;;6.78;2.03;;;5.80;99.40;;;;;;5045355;28;20040;-70
2024/02/20 03:37:38;;;;;;;6.22;2.00;;;5.80;99.30;;;;;;5050617;28;20029;-69
2024/02/20 03:40:05;;;;;;;3.42;1.27;;;5.80;99.50;;;;;;5049283;28;20021;-69
2024/02/20 03:42:31;;;;;;;1.63;1.00;;;5.70;99.30;;;;;;5051535;28;20047;-68
2024/02/20 03:44:56;;;;;;;7.82;1.70;;;5.80;99.40;;;;;;5050558;28;20494;-69
2024/02/20 03:47:22;;;;;;;3.75;1.05;;;5.70;99.30;;;;;;5047912;28;20043;-69
2024/02/20 03:49:48;;;;;;;7.05;1.25;;;5.70;99.30;;;;;;5046481;28;20534;-69
2024/02/20 03:52:14;;;;;;;3.03;0.88;;;5.80;99.30;;;;;;5046387;28;20060;-69
2024/02/20 03:54:39;;;;;;;7.15;1.50;;;5.80;99.10;;;;;;5047137;28;20033;-69
2024/02/20 03:57:04;;;;;;;2.25;1.23;;;5.80;98.80;;;;;;5043812;28;20037;-69
2024/02/20 03:59:30;;;;;;;2.65;0.90;;;5.80;98.90;;;;;;5049726;28;20056;-69
2024/02/20 04:01:55;;;;;;;5.28;1.23;;;5.70;99.10;;;;;;5045209;28;20113;-69
2024/02/20 04:04:21;;;;;;;3.20;1.05;;;5.70;99.30;;;;;;5043558;28;20051;-69
2024/02/20 04:06:47;;;;;;;4.90;1.08;;;5.70;99.30;;;;;;5046488;28;20383;-70
2024/02/20 04:09:12;;;;;;;5.90;2.00;;;5.70;98.80;;;;;;5045555;28;20055;-69
2024/02/20 04:11:38;;;;;;;5.07;1.35;;;5.70;98.50;;;;;;5045527;28;20047;-70
2024/02/20 04:14:03;;;;;;;3.92;1.05;;;5.70;98.30;;;;;;5050333;28;20032;-69
2024/02/20 04:16:29;;;;;;;4.70;1.55;;;5.70;98.60;;;;;;5044493;28;20137;-69
2024/02/20 04:18:54;;;;;;;6.15;1.63;;;5.70;98.70;;;;;;5050581;28;20127;-69
2024/02/20 04:21:19;;;;;;;5.72;1.17;;;5.70;98.80;;;;;;5043406;28;20075;-69
2024/02/20 04:23:45;;;;;;;6.93;1.95;;;5.70;98.80;;;;;;5051828;28;20037;-70
2024/02/20 04:26:10;;;;;;;2.00;0.95;;;5.70;99.00;;;;;;5046990;28;20112;-69
2024/02/20 04:28:36;;;;;;;2.78;0.95;;;5.70;98.80;;;;;;5032278;28;20113;-69
2024/02/20 04:31:02;;;;;;;2.67;1.17;;;5.70;98.90;;;;;;5052603;28;20510;-69
2024/02/20 04:33:31;;;;;;;2.38;1.83;;;5.60;98.90;;;;;;5054581;28;20670;-69
2024/02/20 04:35:56;;;;;;;3.65;1.63;;;5.70;99.00;;;;;;5052782;28;20051;-69
2024/02/20 04:38:22;;;;;;;5.82;1.55;;;5.60;98.90;;;;;;5050552;28;20123;-69
2024/02/20 04:40:51;;;;;;;2.78;1.02;;;5.60;99.00;;;;;;5047660;28;20069;-69
2024/02/20 04:43:17;;;;;;;4.10;1.60;;;5.60;99.00;;;;;;5047726;28;20203;-69
2024/02/20 04:45:44;;;;;;;3.30;1.10;;;5.60;99.10;;;;;;5047004;28;20143;-69
2024/02/20 04:48:09;;;;;;;8.57;1.95;;;5.60;99.20;;;;;;5052126;28;20470;-69
2024/02/20 04:50:36;;;;;;;3.45;0.90;;;5.50;99.20;;;;;;5046336;28;20090;-69
2024/02/20 04:53:01;;;;;;;3.17;1.10;;;5.50;99.30;;;;;;5048344;28;20033;-69
2024/02/20 04:55:27;;;;;;;5.93;2.03;;;5.60;99.40;;;;;;5047590;28;20043;-69
2024/02/20 04:57:53;;;;;;;2.60;1.60;;;5.50;99.40;;;;;;5048041;28;20033;-68
2024/02/20 05:00:18;;;;;;;1.77;0.63;;;5.60;99.40;;;;;;5047543;28;20378;-70
2024/02/20 05:02:44;;;;;;;3.20;1.63;;;5.60;99.40;;;;;;5052176;28;20342;-69
2024/02/20 05:05:09;;;;;;;4.38;1.23;;;5.60;99.40;;;;;;5051617;28;20059;-69
2024/02/20 05:07:36;;;;;;;3.50;1.58;;;5.60;99.50;;;;;;5050936;28;20037;-69
2024/02/20 05:10:01;;;;;;;2.97;1.00;;;5.60;99.50;;;;;;5049742;28;20112;-69
2024/02/20 05:12:27;;;;;;;2.58;1.13;;;5.60;99.50;;;;;;5049201;28;20037;-69
2024/02/20 05:14:52;;;;;;;5.47;1.83;;;5.60;99.50;;;;;;5047403;28;20115;-68
2024/02/20 05:17:18;;;;;;;5.53;1.35;;;5.60;99.50;;;;;;5045556;28;20048;-69
2024/02/20 05:19:43;;;;;;;4.05;1.45;;;5.60;99.50;;;;;;5052149;28;20024;-69
2024/02/20 05:22:09;;;;;;;5.10;0.90;;;5.60;99.50;;;;;;5044602;28;20037;-69
2024/02/20 05:24:34;;;;;;;1.48;0.77;;;5.60;99.50;;;;;;5046896;28;20091;-68
2024/02/20 05:27:02;;;;;;;2.40;0.90;;;5.60;99.60;;;;;;5026766;28;20086;-69
2024/02/20 05:29:31;;;;;;;3.20;1.25;;;5.60;99.60;;;;;;5047423;28;20337;-68
2024/02/20 05:31:57;;;;;;;5.03;1.00;;;5.60;99.60;;;;;;5050924;28;20140;-69
2024/02/20 05:34:23;;;;;;;5.60;1.25;;;5.60;99.60;;;;;;5045658;28;20050;-69
2024/02/20 05:36:48;;;;;;;7.60;2.28;;;5.60;99.60;;;;;;5044809;28;20029;-69
2024/02/20 05:39:14;;;;;;;4.10;1.23;;;5.60;99.70;;;;;;5052637;28;20071;-69
2024/02/20 05:41:39;;;;;;;9.70;1.70;;;5.60;99.70;;;;;;5050469;28;20430;-70
2024/02/20 05:44:05;;;;;;;3.85;1.42;;;5.60;99.70;;;;;;5049528;28;20044;-69
2024/02/20 05:46:32;;;;;;;9.85;1.30;;;5.60;99.70;;;;;;5048380;28;20553;-69
2024/02/20 05:48:58;;;;;;;1.77;0.88;;;5.50;99.80;;;;;;5046937;28;20048;-69
2024/02/20 05:51:25;;;;;;;3.78;0.88;;;5.50;99.80;;;;;;5027851;28;20045;-69
2024/02/20 05:53:51;;;;;;;5.50;1.08;;;5.50;99.80;;;;;;5057526;28;20029;-69
2024/02/20 05:56:17;;;;;;;9.75;3.13;;;5.50;99.90;;;;;;5046629;28;20439;-69
2024/02/20 05:58:43;;;;;;;3.80;1.10;;;5.50;99.90;;;;;;5043650;28;20036;-70
2024/02/20 06:01:08;;;;;;;2.97;1.27;;;5.50;99.90;;;;;;5046817;28;20490;-70
2024/02/20 06:03:37;;;;;;;3.85;0.95;;;5.50;99.90;;;;;;5043395;28;20052;-69
2024/02/20 06:06:07;;;;;;;5.40;1.35;;;5.50;99.90;;;;;;5054454;28;20026;-69
2024/02/20 06:08:33;;;;;;;4.30;1.38;;;5.50;99.90;;;;;;5051746;28;20029;-70
2024/02/20 06:10:59;;;;;;;5.53;0.80;;;5.50;99.90;;;;;;5052860;28;20052;-70
2024/02/20 06:13:24;;;;;;;3.58;1.45;;;5.60;99.90;;;;;;5051957;28;20320;-69
2024/02/20 06:15:50;;;;;;;3.53;1.73;;;5.60;99.90;;;;;;5050703;28;20171;-69
2024/02/20 06:18:16;;;;;;;1.80;1.33;;;5.60;99.90;;;;;;5052899;28;20043;-69
2024/02/20 06:20:45;;;;;;;2.25;1.48;;;5.60;99.90;;;;;;5045257;28;20390;-70
2024/02/20 06:23:14;;;;;;;4.40;1.85;;;5.60;99.90;;;;;;5044043;28;20082;-70
2024/02/20 06:25:43;;;;;;;4.88;2.00;;;5.60;99.90;;;;;;5044559;28;20051;-69
2024/02/20 06:28:09;;;;;;;5.90;1.85;;;5.60;99.90;;;;;;5044564;28;20366;-69
2024/02/20 06:30:35;;;;;;;6.82;1.42;;;5.60;99.90;;;;;;5044935;28;20090;-70
2024/02/20 06:33:01;;;;;;;7.10;1.83;;;5.70;99.90;;;;;;5043761;28;20029;-69
2024/02/20 06:35:27;;;;;;;1.40;1.10;;;5.70;99.90;;;;;;5042006;28;20056;-70
2024/02/20 06:37:52;;;;;;;1.80;0.95;;;5.70;99.90;;;;;;5046549;28;20036;-69
2024/02/20 06:40:18;;;;;;;3.40;1.08;;;5.70;99.90;;;;;;5041807;28;20036;-69
2024/02/20 06:42:43;;;;;;;7.18;2.35;;;5.70;99.90;;;;;;5050950;28;20112;-71
2024/02/20 06:45:09;;;;;;;5.30;1.25;;;5.70;99.90;;;;;;5036175;28;20400;-69
2024/02/20 06:47:34;;;;;;;4.57;1.52;;;5.70;99.90;;;;;;5049913;28;20167;-69
2024/02/20 06:50:00;;;;;;;5.50;2.10;;;5.70;99.90;;;;;;5046899;28;20460;-70
2024/02/20 06:52:26;;;;;;;7.60;1.38;;;5.70;99.90;;;;;;5047411;28;20068;-70
2024/02/20 06:54:52;;;;;;;5.82;1.73;;;5.70;99.90;;;;;;5046496;28;20746;-69
2024/02/20 06:57:17;;;;;;;4.88;2.13;;;5.70;99.90;;;;;;5041069;28;20056;-69
2024/02/20 06:59:43;;;;;;;6.38;1.67;;;5.80;99.90;;;;;;5042190;28;20568;-69
2024/02/20 07:02:08;;;;;;;4.30;0.93;;;5.80;99.90;;;;;;5037405;28;20036;-69
2024/02/20 07:04:36;;;;;;;2.47;0.60;;;5.80;99.80;;;;;;5050240;28;20083;-70
2024/02/20 07:07:01;;;;;;;3.67;1.38;;;5.80;99.70;;;;;;5045626;28;20055;-70
2024/02/20 07:09:27;;;;;;;4.05;1.42;;;5.80;99.60;;;;;;5045587;28;20428;-69
2024/02/20 07:11:52;;;;;;;6.40;2.05;;;5.80;99.60;;;;;;5044174;28;20116;-69
2024/02/20 07:14:18;;;;;;;2.67;0.77;;;5.80;99.70;;;;;;5012485;28;20455;-69
2024/02/20 07:16:44;;;;;;;8.40;1.35;;;5.80;99.50;;;;;;5041481;28;20494;-69
2024/02/20 07:19:10;;;;;;;10.35;2.25;;;5.80;99.50;;;;;;5038856;28;20432;-69
2024/02/20 07:21:36;;;;;;;5.07;1.35;;;5.80;99.30;;;;;;5038449;28;20041;-70
2024/02/20 07:24:03;;;;;;;2.83;0.93;;;5.80;99.30;;;;;;5043981;28;20147;-69
2024/02/20 07:26:29;;;;;;;5.30;1.15;;;5.80;99.30;;;;;;5042101;28;20074;-69
2024/02/20 07:28:55;;;;;;;1.20;0.82;;;5.80;99.30;;;;;;5042557;28;20073;-72
2024/02/20 07:31:22;;;;;;;2.10;1.27;;;5.80;99.30;;;;;;5045900;28;20033;-73
2024/02/20 07:33:48;;;;;;;4.38;1.73;;;5.90;99.30;;;;;;5042377;28;20086;-73
2024/02/20 07:36:14;;;;;;;2.53;1.00;;;5.80;99.30;;;;;;5026821;28;20169;-73
2024/02/20 07:38:40;;;;;;;4.93;1.98;;;5.80;99.20;;;;;;5052658;28;20032;-69
2024/02/20 07:41:05;;;;;;;3.17;0.90;;;5.90;99.30;;;;;;5042410;28;20390;-69
2024/02/20 07:43:30;;;;;;;9.43;2.35;;;5.80;99.20;;;;;;5037568;28;20021;-69
2024/02/20 07:45:56;;;;;;;5.95;1.70;;;5.90;99.20;;;;;;5042499;28;20471;-69
2024/02/20 07:48:21;;;;;;;5.18;1.48;;;5.80;99.20;;;;;;5046698;28;20037;-69
2024/02/20 07:50:47;;;;;;;5.18;1.48;;;5.90;99.30;;;;;;5039414;28;20061;-69
2024/02/20 07:53:12;;;;;;;3.40;1.98;;;5.80;99.20;;;;;;5044231;28;20147;-69
2024/02/20 07:55:41;;;;;;;3.63;1.13;;;5.90;99.20;;;;;;5042892;28;20117;-69
2024/02/20 07:58:08;;;;;;;4.72;1.40;;;5.90;99.30;;;;;;5047790;28;20412;-69
2024/02/20 08:00:34;;;;;;;5.15;1.75;;;5.90;99.20;;;;;;5054277;28;20112;-69
2024/02/20 08:02:59;;;;;;;2.67;0.80;;;5.90;99.20;;;;;;5056204;28;20402;-70
2024/02/20 08:05:27;;;;;;;3.60;1.30;;;6.00;99.10;;;;;;5054883;28;20220;-77
2024/02/20 08:07:53;;;;;;;7.47;2.05;;;6.00;99.10;;;;;;5045844;28;20419;-71
2024/02/20 08:10:19;;;;;;;7.13;2.00;;;6.10;99.00;;;;;;5057971;28;20128;-71
2024/02/20 08:12:44;;;;;;;4.88;1.25;;;6.10;99.00;;;;;;5044412;28;20136;-71
2024/02/20 08:15:10;;;;;;;9.13;2.42;;;6.10;98.90;;;;;;5054776;28;20048;-72
2024/02/20 08:17:35;;;;;;;4.82;1.63;;;6.10;98.90;;;;;;5048454;28;20081;-68
2024/02/20 08:20:04;;;;;;;4.75;1.50;;;6.20;98.80;;;;;;5048101;28;20366;-69
2024/02/20 08:22:29;;;;;;;7.32;2.00;;;6.30;98.80;;;;;;5046611;28;20029;-69
2024/02/20 08:24:56;;;;;;;5.78;2.08;;;6.20;98.60;;;;;;5048085;28;20328;-68
2024/02/20 08:27:22;;;;;;;8.60;2.20;;;6.20;98.30;;;;;;5045638;28;20029;-69
2024/02/20 08:29:48;;;;;;;3.97;1.75;;;6.30;98.50;;;;;;5046348;28;20044;-69
2024/02/20 08:32:13;;;;;;;6.60;1.90;;;6.40;98.50;;;;;;5046173;28;20037;-68
2024/02/20 08:34:39;;;;;;;2.90;1.30;;;6.40;98.40;;;;;;5046504;28;20190;-69
2024/02/20 08:37:04;;;;;;;4.80;1.92;;;6.40;98.30;;;;;;5046141;28;20060;-68
2024/02/20 08:39:30;;;;;;;6.40;2.40;;;6.20;98.20;;;;;;5057410;28;20025;-69
2024/02/20 08:41:55;;;;;;;4.57;1.80;;;6.20;98.20;;;;;;5050627;28;20501;-69
2024/02/20 08:44:23;;;;;;;8.18;2.35;;;6.30;98.30;;;;;;5053511;28;20136;-69
2024/02/20 08:46:49;;;;;;;4.50;2.00;;;6.30;98.30;;;;;;5052790;28;20039;-69
2024/02/20 08:49:14;;;;;;;7.65;2.95;;;6.30;98.10;;;;;;5051361;28;20029;-70
2024/02/20 08:51:40;;;;;;;5.40;2.42;;;6.50;98.10;;;;;;5053843;28;20116;-70
2024/02/20 08:54:06;;;;;;;4.57;1.95;;;6.60;97.50;;;;;;5054433;28;20036;-70
2024/02/20 08:56:31;;;;;;;7.65;2.72;;;6.80;97.50;;;;;;5048026;28;20356;-70
2024/02/20 08:58:57;;;;;;;8.20;3.75;;;6.90;97.20;;;;;;5053464;28;20069;-70
2024/02/20 09:01:24;;;;;;;9.88;4.18;;;6.90;97.10;;;;;;5045250;28;20067;-70
2024/02/20 09:03:51;;;;;;;8.45;3.38;;;6.80;96.90;;;;;;5056597;28;20066;-70
2024/02/20 09:06:17;;;;;;;8.60;2.85;;;6.90;96.80;;;;;;5059048;28;20115;-71
2024/02/20 09:08:43;;;;;;;12.85;4.03;;;7.00;96.60;;;;;;5048138;28;20108;-70
2024/02/20 09:11:09;;;;;;;8.00;3.13;;;7.20;96.70;;;;;;5053525;28;20100;-71
2024/02/20 09:13:35;;;;;;;10.02;3.88;;;7.30;96.60;;;;;;5051753;28;20048;-70
2024/02/20 09:16:02;;;;;;;9.07;3.97;;;7.30;96.50;;;;;;5051070;28;20045;-70
2024/02/20 09:18:28;;;;;;;9.45;4.22;;;7.30;96.10;;;;;;5030831;28;20148;-70
2024/02/20 09:20:54;;;;;;;9.02;3.90;;;7.10;96.00;;;;;;5048112;28;20170;-69
2024/02/20 09:23:20;;;;;;;9.88;3.30;;;7.10;95.70;;;;;;5047238;28;20378;-69
2024/02/20 09:25:46;;;;;;;8.98;3.13;;;7.10;96.10;;;;;;5046949;28;20052;-69
2024/02/20 09:28:11;;;;;;;9.90;3.03;;;7.10;95.90;;;;;;5045721;28;20032;-69
2024/02/20 09:30:37;;;;;;;7.60;3.00;;;7.20;95.90;;;;;;5047277;28;20056;-69
2024/02/20 09:33:03;;;;;;;8.60;2.90;;;7.20;95.90;;;;;;5048062;28;20132;-70
2024/02/20 09:35:28;;;;;;;6.85;2.50;;;7.20;96.00;;;;;;5040884;28;20459;-70
2024/02/20 09:37:54;;;;;;;8.00;2.55;;;7.30;95.90;;;;;;5028733;28;20132;-69
2024/02/20 09:40:19;;;;;;;7.13;3.47;;;7.30;95.30;;;;;;5043304;28;20564;-70
2024/02/20 09:42:49;;;;;;;10.10;4.05;;;7.30;95.10;;;;;;5042804;28;20059;-68
2024/02/20 09:45:19;;;;;;;8.73;2.85;;;7.50;95.40;;;;;;5051223;28;20029;-68
2024/02/20 09:47:47;;;;;;;9.63;3.60;;;7.60;94.90;;;;;;5047729;28;20032;-70
2024/02/20 09:50:18;;;;;;;8.43;3.13;;;7.80;94.80;;;;;;5059893;28;20115;-69
2024/02/20 09:52:47;;;;;;;;;;;7.90;94.20;;;;;;5059201;28;20028;-69
2024/02/20 09:55:15;;;;;;;7.20;3.10;;;8.10;93.90;;;;;;5053341;28;19908;-69
2024/02/20 09:57:41;;;;;;;6.10;3.00;;;8.00;93.70;;;;;;5057325;28;20482;-70
2024/02/20 10:00:07;;;;;;;5.68;2.88;;;7.90;94.10;;;;;;5048180;28;20494;-70
2024/02/20 10:02:34;;;;;;;2.90;1.90;;;7.80;94.10;;;;;;5052741;28;20021;-70
2024/02/20 10:05:02;;;;;;;9.30;3.47;;;7.70;94.50;;;;;;5039828;28;20477;-69
2024/02/20 10:07:28;;;;;;;6.63;2.55;;;7.80;94.20;;;;;;5046634;28;20457;-69
2024/02/20 10:09:53;;;;;;;5.65;2.90;;;7.70;94.20;;;;;;5046359;28;20127;-68
2024/02/20 10:12:21;;;;;;;9.95;3.15;;;7.60;94.30;;;;;;5046738;28;20355;-69
2024/02/20 10:14:46;;;;;;;8.30;2.63;;;7.60;94.20;;;;;;5048151;28;20037;-69
2024/02/20 10:17:14;;;;;;;7.95;2.28;;;7.60;94.40;;;;;;5044326;28;20035;-71
2024/02/20 10:19:40;;;;;;;4.38;1.80;;;7.60;94.50;;;;;;5045493;28;20135;-70
2024/02/20 10:22:05;;;;;;;3.60;1.38;;;7.70;94.30;;;;;;5033231;28;20143;-70
2024/02/20 10:24:31;;;;;;;13.02;2.58;;;7.70;94.20;;;;;;5043897;28;20029;-70
2024/02/20 10:26:57;;;;;;;5.50;1.45;;;7.70;93.90;;;;;;5043024;28;20064;-70
2024/02/20 10:29:24;;;;;;;5.07;1.45;;;7.80;94.30;;;;;;5045815;28;20107;-70
2024/02/20 10:31:50;;;;;;;4.88;2.15;;;7.80;94.50;;;;;;5049859;28;20565;-70
2024/02/20 10:34:21;;;;;;;4.18;1.83;;;7.80;94.30;;;;;;5028580;28;20123;-71
2024/02/20 10:36:47;;;;;;;4.15;2.20;;;7.90;94.70;;;;;;5040466;28;20052;-70
2024/02/20 10:39:14;;;;;;;11.55;2.35;;;8.00;94.90;;;;;;5041966;28;20029;-70
2024/02/20 10:41:41;;;;;;;4.53;1.67;;;8.00;94.30;;;;;;5041247;28;20025;-70
2024/02/20 10:44:07;;;;;;;7.85;1.95;;;7.90;94.30;;;;;;5043485;28;20987;-70
2024/02/20 10:46:36;;;;;;;4.70;2.00;;;7.80;94.20;;;;;;5041851;28;20036;-70
2024/02/20 10:49:11;;;;;;;5.90;2.42;;;7.80;94.50;;;;;;5044511;28;20029;-70
2024/02/20 10:51:41;;;;;;;5.78;1.60;;;7.90;94.50;;;;;;5039852;28;20390;-70
2024/02/20 10:54:08;;;;;;;5.15;1.35;;;8.00;94.30;;;;;;5046431;28;20028;-71
2024/02/20 10:56:34;;;;;;;5.70;1.83;;;8.10;93.80;;;;;;5041087;28;20043;-70
2024/02/20 10:59:00;;;;;;;7.60;2.00;;;8.20;94.00;;;;;;5047740;28;20404;-70
2024/02/20 11:01:28;;;;;;;6.90;1.63;;;8.10;93.30;;;;;;5045817;28;20434;-70
2024/02/20 11:03:54;;;;;;;7.93;2.35;;;8.10;93.80;;;;;;5042632;28;20053;-70
2024/02/20 11:06:19;;;;;;;7.45;2.35;;;8.00;93.50;;;;;;5049792;28;20032;-70
2024/02/20 11:08:45;;;;;;;4.45;2.10;;;8.10;94.10;;;;;;5045296;28;20144;-70
2024/02/20 11:11:15;;;;;;;8.82;2.78;;;8.10;94.20;;;;;;5038955;28;20041;-71
2024/02/20 11:13:41;;;;;;;6.90;2.13;;;8.20;93.30;;;;;;5042210;28;20112;-71
2024/02/20 11:16:14;;;;;;;9.13;3.20;;;8.20;93.60;;;;;;5044342;28;20097;-70
2024/02/20 11:18:53;;;;;;;9.20;2.65;;;8.30;93.10;;;;;;5042545;28;20439;-71
2024/02/20 11:21:29;;;;;;;7.68;3.33;;;8.10;93.00;;;;;;5043443;28;20048;-70
2024/02/20 11:23:55;;;;;;;6.57;2.85;;;8.10;93.40;;;;;;5043068;28;20058;-70
2024/02/20 11:26:28;;;;;;;5.80;2.38;;;8.10;93.70;;;;;;5040125;28;20036;-70
2024/02/20 11:28:57;;;;;;;9.20;3.15;;;8.10;93.50;;;;;;5042767;28;20025;-70
2024/02/20 11:31:27;;;;;;;5.30;2.55;;;8.00;93.20;;;;;;5040961;28;20447;-70
2024/02/20 11:33:54;;;;;;;8.03;2.47;;;8.10;93.30;;;;;;5036257;28;20037;-71
2024/02/20 11:36:19;;;;;;;6.68;3.05;;;8.00;93.90;;;;;;5042201;28;20029;-71
2024/02/20 11:38:45;;;;;;;7.22;2.80;;;7.90;93.90;;;;;;5033572;28;20071;-70
2024/02/20 11:41:11;;;;;;;11.18;4.03;;;8.00;93.70;;;;;;5037166;28;20446;-70
2024/02/20 11:43:36;;;;;;;6.55;2.92;;;8.00;93.30;;;;;;5042245;28;20099;-71
2024/02/20 11:46:02;;;;;;;9.35;3.75;;;8.10;93.40;;;;;;5041584;28;20139;-71
2024/02/20 11:48:28;;;;;;;9.48;3.67;;;8.00;93.00;;;;;;5041000;28;20025;-71
2024/02/20 11:50:59;;;;;;;12.30;4.10;;;8.00;93.30;;;;;;5043681;28;20028;-71
2024/02/20 11:53:24;;;;;;;8.20;3.95;;;8.10;93.60;;;;;;5042281;28;20466;-70
2024/02/20 11:55:53;;;;;;;8.57;3.67;;;8.10;93.40;;;;;;5036564;28;20037;-70
2024/02/20 11:58:21;;;;;;;6.93;3.80;;;8.20;93.50;;;;;;5039897;28;20309;-70
2024/02/20 12:00:48;;;;;;;7.13;3.65;;;8.10;93.40;;;;;;5040511;28;20366;-71
2024/02/20 12:03:28;;;;;;;10.40;4.15;;;8.20;93.70;;;;;;5047944;28;20116;-70
2024/02/20 12:06:03;;;;;;;9.68;3.78;;;8.10;93.50;;;;;;5039928;28;20387;-70
2024/02/20 12:08:39;;;;;;;8.40;3.78;;;8.10;93.80;;;;;;5036915;28;20021;-69
2024/02/20 12:11:05;;;;;;;11.55;4.28;;;8.20;93.80;;;;;;5045015;28;20205;-70
2024/02/20 12:13:31;;;;;;;9.75;3.33;;;8.20;93.40;;;;;;5048853;28;20036;-70
2024/02/20 12:15:56;;;;;;;13.05;4.07;;;8.20;93.50;;;;;;5042278;28;20074;-69
2024/02/20 12:18:26;;;;;;;7.75;3.80;;;8.20;93.20;;;;;;5044216;28;20025;-68
2024/02/20 12:21:02;;;;;;;9.03;4.07;;;8.30;93.10;;;;;;5041915;28;20124;-69
2024/02/20 12:23:27;;;;;;;11.68;4.10;;;8.40;92.90;;;;;;5044974;28;20114;-70
2024/02/20 12:26:04;;;;;;;12.18;4.90;;;8.40;92.70;;;;;;5033082;28;20086;-70
2024/02/20 12:28:29;;;;;;;9.15;3.47;;;8.30;92.70;;;;;;5042481;28;20466;-69
2024/02/20 12:30:55;;;;;;;12.20;4.28;;;8.30;93.00;;;;;;5045186;28;20055;-69
2024/02/20 12:33:20;;;;;;;10.05;4.03;;;8.40;93.50;;;;;;5042290;28;20083;-70
2024/02/20 12:35:46;;;;;;;7.63;4.00;;;8.50;93.20;;;;;;5039197;28;20448;-69
2024/02/20 12:38:12;;;;;;;6.70;2.85;;;8.50;92.70;;;;;;5036470;28;20109;-72
2024/02/20 12:40:37;;;;;;;9.10;3.13;;;8.50;93.30;;;;;;5043952;28;20037;-70
2024/02/20 12:43:03;;;;;;;7.07;3.20;;;8.50;93.20;;;;;;5041300;28;20094;-68
2024/02/20 12:45:28;;;;;;;10.02;3.95;;;8.50;93.30;;;;;;5045586;28;20029;-69
2024/02/20 12:47:54;;;;;;;7.85;3.50;;;8.60;93.10;;;;;;5047471;28;20044;-69
2024/02/20 12:50:19;;;;;;;8.25;3.13;;;8.60;93.00;;;;;;5047313;28;20063;-69
2024/02/20 12:52:46;;;;;;;6.70;3.17;;;8.60;93.20;;;;;;5044032;28;20086;-69